地図

経路データ

SID SEASON NUMBER BASIN SUBBASIN NAME ISO_TIME NATURE LAT LON WMO_WIND WMO_PRES WMO_AGENCY TRACK_TYPE DIST2LAND LANDFALL IFLAG USA_AGENCY USA_ATCF_ID USA_LAT USA_LON USA_RECORD USA_STATUS USA_WIND USA_PRES USA_SSHS USA_R34_NE USA_R34_SE USA_R34_SW USA_R34_NW USA_R50_NE USA_R50_SE USA_R50_SW USA_R50_NW USA_R64_NE USA_R64_SE USA_R64_SW USA_R64_NW USA_POCI USA_ROCI USA_RMW USA_EYE TOKYO_LAT TOKYO_LON TOKYO_GRADE TOKYO_WIND TOKYO_PRES TOKYO_R50_DIR TOKYO_R50_LONG TOKYO_R50_SHORT TOKYO_R30_DIR TOKYO_R30_LONG TOKYO_R30_SHORT TOKYO_LAND CMA_LAT CMA_LON CMA_CAT CMA_WIND CMA_PRES HKO_LAT HKO_LON HKO_CAT HKO_WIND HKO_PRES NEWDELHI_LAT NEWDELHI_LON NEWDELHI_GRADE NEWDELHI_WIND NEWDELHI_PRES NEWDELHI_CI NEWDELHI_DP NEWDELHI_POCI REUNION_LAT REUNION_LON REUNION_TYPE REUNION_WIND REUNION_PRES REUNION_TNUM REUNION_CI REUNION_RMW REUNION_R34_NE REUNION_R34_SE REUNION_R34_SW REUNION_R34_NW REUNION_R50_NE REUNION_R50_SE REUNION_R50_SW REUNION_R50_NW REUNION_R64_NE REUNION_R64_SE REUNION_R64_SW REUNION_R64_NW BOM_LAT BOM_LON BOM_TYPE BOM_WIND BOM_PRES BOM_TNUM BOM_CI BOM_RMW BOM_R34_NE BOM_R34_SE BOM_R34_SW BOM_R34_NW BOM_R50_NE BOM_R50_SE BOM_R50_SW BOM_R50_NW BOM_R64_NE BOM_R64_SE BOM_R64_SW BOM_R64_NW BOM_ROCI BOM_POCI BOM_EYE BOM_POS_METHOD BOM_PRES_METHOD NADI_LAT NADI_LON NADI_CAT NADI_WIND NADI_PRES WELLINGTON_LAT WELLINGTON_LON WELLINGTON_WIND WELLINGTON_PRES DS824_LAT DS824_LON DS824_STAGE DS824_WIND DS824_PRES TD9636_LAT TD9636_LON TD9636_STAGE TD9636_WIND TD9636_PRES TD9635_LAT TD9635_LON TD9635_WIND TD9635_PRES TD9635_ROCI NEUMANN_LAT NEUMANN_LON NEUMANN_CLASS NEUMANN_WIND NEUMANN_PRES MLC_LAT MLC_LON MLC_CLASS MLC_WIND MLC_PRES USA_GUST BOM_GUST BOM_GUST_PER REUNION_GUST REUNION_GUST_PER USA_SEAHGT USA_SEARAD_NE USA_SEARAD_SE USA_SEARAD_SW USA_SEARAD_NW STORM_SPEED STORM_DIR
1992176N06145 1992 44 WP MM DEANNA 1992-06-24 00:00:00 NR 5.90000 145.300 main 908 908 O_____________ jtwc_wp WP041992 5.90000 145.300 15 -1 2 297
1992176N06145 1992 44 WP MM DEANNA 1992-06-24 03:00:00 NR 5.95000 145.200 main 920 920 P_____________ WP041992 5.95000 145.200 15 -1 2 297
1992176N06145 1992 44 WP MM DEANNA 1992-06-24 06:00:00 NR 6.00000 145.100 main 922 922 O_____________ jtwc_wp WP041992 6.00000 145.100 15 -1 2 297
1992176N06145 1992 44 WP MM DEANNA 1992-06-24 09:00:00 NR 6.05000 145.000 main 924 924 P_____________ WP041992 6.05000 145.000 15 -1 2 297
1992176N06145 1992 44 WP MM DEANNA 1992-06-24 12:00:00 NR 6.10000 144.900 main 938 938 O_____________ jtwc_wp WP041992 6.10000 144.900 15 -1 2 298
1992176N06145 1992 44 WP MM DEANNA 1992-06-24 15:00:00 NR 6.14999 144.807 main 940 940 P_____________ WP041992 6.14999 144.807 15 -1 2 297
1992176N06145 1992 44 WP MM DEANNA 1992-06-24 18:00:00 NR 6.20000 144.700 main 953 953 O_____________ jtwc_wp WP041992 6.20000 144.700 15 -1 3 292
1992176N06145 1992 44 WP MM DEANNA 1992-06-24 21:00:00 NR 6.25000 144.557 main 967 967 P_____________ WP041992 6.25000 144.557 15 -1 3 289
1992176N06145 1992 44 WP MM DEANNA 1992-06-25 00:00:00 NR 6.30000 144.400 main 972 972 O_____________ jtwc_wp WP041992 6.30000 144.400 15 -1 3 287
1992176N06145 1992 44 WP MM DEANNA 1992-06-25 03:00:00 NR 6.34249 144.257 main 975 975 P_____________ WP041992 6.34249 144.257 17 -1 3 289
1992176N06145 1992 44 WP MM DEANNA 1992-06-25 06:00:00 NR 6.40000 144.100 main 992 992 O_____________ jtwc_wp WP041992 6.40000 144.100 20 -1 4 293
1992176N06145 1992 44 WP MM DEANNA 1992-06-25 09:00:00 NR 6.49251 143.900 main 1009 1009 P_____________ WP041992 6.49251 143.900 22 -1 4 297
1992176N06145 1992 44 WP MM DEANNA 1992-06-25 12:00:00 NR 6.60000 143.700 main 1026 1026 O_____________ jtwc_wp WP041992 6.60000 143.700 25 -1 4 302
1992176N06145 1992 44 WP MM DEANNA 1992-06-25 15:00:00 NR 6.70747 143.557 main 1040 1040 P_____________ WP041992 6.70747 143.557 25 -1 4 304
1992176N06145 1992 44 WP MM DEANNA 1992-06-25 18:00:00 NR 6.80000 143.400 main 1058 1058 O_____________ jtwc_wp WP041992 6.80000 143.400 25 -1 4 292
1992176N06145 1992 44 WP MM DEANNA 1992-06-25 21:00:00 NR 6.86501 143.165 main 1076 1076 P_____________ WP041992 6.86501 143.165 25 -1 5 281
1992176N06145 1992 44 WP MM DEANNA 1992-06-26 00:00:00 NR 6.90000 142.900 main 1078 1071 O_____________ jtwc_wp WP041992 6.90000 142.900 25 -1 5 276
1992176N06145 1992 44 WP MM DEANNA 1992-06-26 03:00:00 NR 6.91499 142.650 main 1071 1058 P_____________ WP041992 6.91499 142.650 25 -1 5 270
1992176N06145 1992 44 WP MM DEANNA 1992-06-26 06:00:00 NR 6.90000 142.400 main 1058 1049 O_____________ jtwc_wp WP041992 6.90000 142.400 25 -1 5 265
1992176N06145 1992 44 WP MM DEANNA 1992-06-26 09:00:00 NR 6.87249 142.150 main 1049 1027 P_____________ WP041992 6.87249 142.150 25 -1 5 259
1992176N06145 1992 44 WP MM DEANNA 1992-06-26 12:00:00 NR 6.80000 141.900 main 1027 1003 O_____________ jtwc_wp WP041992 6.80000 141.900 25 -1 6 250
1992176N06145 1992 44 WP MM DEANNA 1992-06-26 15:00:00 NR 6.68751 141.627 main 1003 974 P_____________ WP041992 6.68751 141.627 27 -1 6 239
1992176N06145 1992 44 WP MM DEANNA 1992-06-26 18:00:00 NR 6.50000 141.400 main 974 939 O_____________ jtwc_wp WP041992 6.50000 141.400 30 -1 6 218
1992176N06145 1992 44 WP MM DEANNA 1992-06-26 21:00:00 NR 6.21498 141.262 main 939 904 P_____________ WP041992 6.21498 141.262 30 -1 6 198
1992176N06145 1992 44 WP MM DEANNA 1992-06-27 00:00:00 NR 5.90000 141.200 main 904 873 O_____________ jtwc_wp WP041992 5.90000 141.200 30 -1 6 190
1992176N06145 1992 44 WP MM DEANNA 1992-06-27 03:00:00 NR 5.62749 141.155 main 873 852 P_____________ WP041992 5.62749 141.155 30 -1 5 178
1992176N06145 1992 44 WP MM DEANNA 1992-06-27 06:00:00 NR 5.40000 141.200 main 852 836 O_____________ jtwc_wp WP041992 5.40000 141.200 30 -1 5 155
1992176N06145 1992 44 WP MM DEANNA 1992-06-27 09:00:00 NR 5.19749 141.355 main 839 829 P_____________ WP041992 5.19749 141.355 30 -1 5 127
1992176N06145 1992 44 WP MM DEANNA 1992-06-27 12:00:00 NR 5.10000 141.600 main 837 837 O_____________ jtwc_wp WP041992 5.10000 141.600 30 -1 6 95
1992176N06145 1992 44 WP MM DEANNA 1992-06-27 15:00:00 NR 5.14755 141.952 main 855 855 P_____________ WP041992 5.14755 141.952 30 -1 6 72
1992176N06145 1992 44 WP MM DEANNA 1992-06-27 18:00:00 NR 5.30000 142.200 main 885 885 O_____________ jtwc_wp WP041992 5.30000 142.200 30 -1 4 27
1992176N06145 1992 44 WP MM DEANNA 1992-06-27 21:00:00 NR 5.49249 142.125 main 901 901 P_____________ WP041992 5.49249 142.125 30 -1 5 323
1992176N06145 1992 44 WP MM DEANNA 1992-06-28 00:00:00 NR 5.70000 141.900 main 912 912 O_____________ jtwc_wp WP041992 5.70000 141.900 30 -1 6 312
1992176N06145 1992 44 WP MM DEANNA 1992-06-28 03:00:00 NR 5.86499 141.715 main 925 921 P_____________ WP041992 5.86499 141.715 30 -1 5 307
1992176N06145 1992 44 WP MM DEANNA 1992-06-28 06:00:00 NR 6.00000 141.500 main 927 922 O_____________ jtwc_wp WP041992 6.00000 141.500 30 -1 5 297
1992176N06145 1992 44 WP MM DEANNA 1992-06-28 09:00:00 NR 6.10001 141.250 main 929 925 P_____________ WP041992 6.10001 141.250 30 -1 6 295
1992176N06145 1992 44 WP MM DEANNA 1992-06-28 12:00:00 NR 6.26000 140.940 main 934 931 O__O__________ jtwc_wp WP041992 6.20000 141.000 30 -1 6.50000 140.700 TD 25 1000 7 303
1992176N06145 1992 44 WP MM DEANNA 1992-06-28 15:00:00 NR 6.48331 140.651 main 949 942 P__P__________ WP041992 6.33495 140.815 30 -1 6.78002 140.323 TD 27 998 7 301
1992176N06145 1992 44 WP MM DEANNA 1992-06-28 18:00:00 TS 6.63750 140.300 main 948 948 O_OO__________ jtwc_wp WP041992 6.50000 140.600 30 -1 5.80000 140.300 1 29 1002 7.10000 139.900 TD 30 997 8 299
1992176N06145 1992 44 WP MM DEANNA 1992-06-28 21:00:00 TS 6.88650 139.919 main 970 965 P_PP__________ WP041992 6.66998 140.287 30 -1 6.12250 140.207 1 29 1002 7.48502 139.408 TD 30 997 9 305
1992176N06145 1992 44 WP MM DEANNA 1992-06-29 00:00:00 TS 7.15455 139.564 main 986 981 O_OO__________ jtwc_wp WP041992 6.90000 139.900 30 -1 6.50000 140.000 1 29 1002 7.90000 138.900 TD 30 997 10 309
1992176N06145 1992 44 WP MM DEANNA 1992-06-29 03:00:00 TS 7.48493 139.173 main 999 995 P_PP__________ WP041992 7.19743 139.487 30 -1 6.95743 139.590 1 26 1003 8.29992 138.442 TD 30 997 12 310
1992176N06145 1992 44 WP MM DEANNA 1992-06-29 06:00:00 TS 7.90000 138.667 main 1023 1019 O_OO__________ jtwc_wp WP041992 7.60000 139.000 30 -1 7.40000 139.000 1 23 1004 8.70000 138.000 TD 30 997 14 307
1992176N06145 1992 44 WP MM DEANNA 1992-06-29 09:00:00 TS 8.30419 138.082 main 1045 1043 P_PP__________ WP041992 8.12001 138.423 30 -1 7.68508 138.280 1 23 1004 9.10747 137.542 TD 30 997 15 305
1992176N06145 1992 44 WP MM DEANNA 1992-06-29 12:00:00 TS 8.73333 137.467 main 1074 1074 O_OO__________ jtwc_wp WP041992 8.70000 137.800 30 -1 8.00000 137.500 1 23 1004 9.50000 137.100 TD 30 997 15 307
1992176N06145 1992 44 WP MM DEANNA 1992-06-29 15:00:00 TS 9.19400 136.907 main 1118 1099 P_PP__________ WP041992 9.26489 137.200 30 -1 8.46725 136.814 1 23 1004 9.84987 136.707 TD 30 997 15 311
1992176N06145 1992 44 WP MM DEANNA 1992-06-29 18:00:00 TS 9.70000 136.333 main 1090 1038 O_OO__________ jtwc_wp WP041992 9.80000 136.600 30 -1 9.10000 136.100 1 23 1004 10.2000 136.300 TD 30 997 16 312
1992176N06145 1992 44 WP MM DEANNA 1992-06-29 21:00:00 TS 10.2817 135.681 main 1041 990 P_PP__________ WP041992 10.2798 136.007 27 -1 9.97274 135.228 1 23 1004 10.5925 135.807 TD 30 997 17 312
1992176N06145 1992 44 WP MM DEANNA 1992-06-30 00:00:00 TS 10.8333 135.033 main 979 936 O_OO__________ jtwc_wp WP041992 10.7000 135.400 25 -1 10.8000 134.400 1 23 1004 11.0000 135.300 TD 30 997 15 308
1992176N06145 1992 44 WP MM DEANNA 1992-06-30 03:00:00 TS 11.2315 134.463 main 936 891 P_PP__________ WP041992 11.0575 134.735 25 -1 11.2370 133.812 1 23 1004 11.3999 134.842 TD 30 997 13 305
1992176N06145 1992 44 WP MM DEANNA 1992-06-30 06:00:00 TS 11.6000 133.933 main 884 836 O_OO__________ jtwc_wp WP041992 11.4000 134.100 25 -1 11.6000 133.300 1 23 1004 11.8000 134.400 TD 30 997 13 309
1992176N06145 1992 44 WP MM DEANNA 1992-06-30 09:00:00 TS 12.0541 133.409 main 837 791 P_PP__________ WP041992 11.7923 133.570 27 -1 12.1700 132.700 1 23 1004 12.1999 133.957 TD 27 998 14 313
1992176N06145 1992 44 WP MM DEANNA 1992-06-30 12:00:00 TS 12.5333 132.900 main 791 752 O_OO__________ jtwc_wp WP041992 12.2000 133.100 30 -1 12.8000 132.100 1 23 1004 12.6000 133.500 TD 25 1000 14 314
1992176N06145 1992 44 WP MM DEANNA 1992-06-30 15:00:00 TS 13.0150 132.380 main 752 707 P_PP__________ WP041992 12.5924 132.642 30 -1 13.4525 131.498 1 23 1004 13.0000 133.000 TD 25 1000 14 314
1992176N06145 1992 44 WP MM DEANNA 1992-06-30 18:00:00 TS 13.4667 131.900 main 709 674 O_OO__________ jtwc_wp WP041992 13.0000 132.200 30 -1 14.0000 131.000 1 23 1004 13.4000 132.500 TD 25 1000 12 314
1992176N06145 1992 44 WP MM DEANNA 1992-06-30 21:00:00 TS 13.8381 131.509 main 674 653 P_PP__________ WP041992 13.4425 131.742 30 -1 14.2797 130.727 1 26 1003 13.7923 132.057 TD 25 1000 10 315
1992176N06145 1992 44 WP MM DEANNA 1992-07-01 00:00:00 TS 14.2000 131.133 main 646 623 O_OO__________ jtwc_wp WP041992 13.9000 131.300 30 -1 14.5000 130.500 1 29 1002 14.2000 131.600 TD 25 1000 11 315
1992176N06145 1992 44 WP MM DEANNA 1992-07-01 03:00:00 TS 14.6233 130.698 main 623 606 P_PP__________ WP041992 14.3499 130.900 30 -1 14.8775 130.137 1 29 1002 14.6425 131.057 TD 25 1000 12 315
1992176N06145 1992 44 WP MM DEANNA 1992-07-01 06:00:00 TS 15.0667 130.233 main 602 586 O_OO__________ jtwc_wp WP041992 14.8000 130.500 30 -1 15.3000 129.700 1 29 1002 15.1000 130.500 TD 25 1000 13 313
1992176N06145 1992 44 WP MM DEANNA 1992-07-01 09:00:00 TS 15.4950 129.742 main 585 572 P_PP__________ WP041992 15.2500 130.050 32 -1 15.6926 129.192 1 29 1002 15.5424 129.985 TD 25 1000 13 313
1992176N06145 1992 44 WP MM DEANNA 1992-07-01 12:00:00 TS 15.9333 129.267 main 572 552 O_OO__________ jtwc_wp WP041992 15.7000 129.600 35 0 16.1000 128.700 1 29 1002 16.0000 129.500 TD 25 1000 12 316
1992176N06145 1992 44 WP MM DEANNA 1992-07-01 15:00:00 TS 16.3849 128.844 main 549 542 P_PP__________ WP041992 16.1349 129.185 35 0 16.5349 128.312 1 29 1001 16.4849 129.035 TD 25 1000 12 321
1992176N06145 1992 44 WP MM DEANNA 1992-07-01 18:00:00 TS 16.8667 128.467 main 553 542 O_OO__________ jtwc_wp WP041992 16.6000 128.800 35 0 17.0000 128.000 1 29 1000 17.0000 128.600 TD 25 1000 12 323
1992176N06145 1992 44 WP MM DEANNA 1992-07-01 21:00:00 TS 17.3726 128.079 main 557 549 P_PP__________ WP041992 17.1126 128.390 35 0 17.4850 127.705 1 29 1000 17.5201 128.140 TD 25 1000 12 329
1992176N06145 1992 44 WP MM DEANNA 1992-07-02 00:00:00 TS 17.9182 127.800 main 571 564 O_OO__________ jtwc_wp WP041992 17.7000 128.100 35 0 18.0000 127.500 1 29 1000 18.1000 127.800 TD 25 1000 12 342
1992176N06145 1992 44 WP MM DEANNA 1992-07-02 03:00:00 TS 18.5284 127.690 main 569 569 P_PP__________ WP041992 18.3923 127.995 37 0 18.5424 127.390 1 29 1000 18.7724 127.682 TD 25 1000 12 357
1992176N06145 1992 44 WP MM DEANNA 1992-07-02 06:00:00 TS 19.1444 127.744 main 573 573 O_OO__________ jtwc_wp WP041992 19.1000 128.100 40 0 19.1000 127.400 1 29 1000 19.5000 127.700 TD 25 1000 12 11
1992176N06145 1992 44 WP MM DEANNA 1992-07-02 09:00:00 TS 19.6823 127.918 main 606 606 P_P___________ WP041992 19.7150 128.382 40 0 19.6497 127.453 1 29 1000 TD 12 23
1992176N06145 1992 44 WP MM DEANNA 1992-07-02 12:00:00 TS 20.2500 128.250 main 664 664 O_O___________ jtwc_wp WP041992 20.3000 128.800 40 0 20.2000 127.700 1 29 1000 14 34
1992176N06145 1992 44 WP MM DEANNA 1992-07-02 15:00:00 TS 20.8252 128.741 main 722 722 P_P___________ WP041992 20.8925 129.243 40 0 20.7579 128.240 1 29 1000 15 40
1992176N06145 1992 44 WP MM DEANNA 1992-07-02 18:00:00 TS 21.4000 129.300 main 804 804 O_O___________ jtwc_wp WP041992 21.5000 129.700 40 0 21.3000 128.900 1 29 1000 15 42
1992176N06145 1992 44 WP MM DEANNA 1992-07-02 21:00:00 TS 21.9111 129.787 main 857 853 P_P___________ WP041992 22.1048 130.101 37 0 21.7174 129.474 1 29 1000 15 37
1992176N06145 1992 44 WP MM DEANNA 1992-07-03 00:00:00 TS 22.5500 130.250 main 881 848 O_O___________ jtwc_wp WP041992 22.8000 130.500 35 0 22.3000 130.000 1 29 1000 17 28
1992176N06145 1992 44 WP MM DEANNA 1992-07-03 03:00:00 TS 23.4334 130.672 main 848 727 P_P___________ WP041992 23.6546 130.906 32 -1 23.2123 130.437 1 29 1000 22 23
1992176N06145 1992 44 WP MM DEANNA 1992-07-03 06:00:00 TS 24.5571 131.186 main 716 601 O_O___________ jtwc_wp WP041992 24.6000 131.400 30 -1 24.5000 130.900 1 29 1000 25 24
1992176N06145 1992 44 WP MM DEANNA 1992-07-03 09:00:00 TS 25.7293 131.817 main 601 514 P_P___________ WP041992 25.5185 131.976 30 -1 26.1508 131.499 1 26 1001 26 31
1992176N06145 1992 44 WP MM DEANNA 1992-07-03 12:00:00 TS 26.8000 132.680 main 507 488 O_O___________ jtwc_wp WP041992 26.5000 132.800 30 -1 28.0000 132.200 1 23 1002 27 46
1992176N06145 1992 44 WP MM DEANNA 1992-07-03 15:00:00 NR 27.5914 133.944 main 488 476 P_____________ WP041992 27.5914 133.944 27 -1 1 31 52
1992176N06145 1992 44 WP MM DEANNA 1992-07-03 18:00:00 NR 28.7000 135.400 main 488 428 O_____________ jtwc_wp WP041992 28.7000 135.400 25 -1 35 52
1992176N06145 1992 44 WP MM DEANNA 1992-07-03 21:00:00 NR 29.7327 137.083 main 430 408 P_____________ WP041992 29.7327 137.083 25 -1 36 57
1992176N06145 1992 44 WP MM DEANNA 1992-07-04 00:00:00 NR 30.7000 138.900 main 419 O_____________ jtwc_wp WP041992 30.7000 138.900 25 -1 37 58

デジタル台風データ・検索

IBTrACS Databaseについて

本データベースは、米国NOAAが公開する1842年以降の世界の熱帯低気圧のベストトラックデータアーカイブInternational Best Track Archive for Climate Stewardship (IBTrACS)を、ウェブで閲覧しやすい形式に変換したものです。

最終更新日:2021-10-08